createdAt,value
2022-09-10T00:01:40.253Z,1.08
2022-09-10T00:04:14.709Z,0.60
2022-09-10T00:06:41.744Z,0.70
2022-09-10T00:09:08.469Z,0.77
2022-09-10T00:11:35.295Z,0.90
2022-09-10T00:14:03.515Z,0.70
2022-09-10T00:16:31.115Z,1.10
2022-09-10T00:18:57.466Z,0.60
2022-09-10T00:21:23.832Z,0.68
2022-09-10T00:23:50.572Z,0.90
2022-09-10T00:26:24.712Z,0.90
2022-09-10T00:28:51.923Z,0.85
2022-09-10T00:31:19.097Z,0.77
2022-09-10T00:33:45.755Z,0.95
2022-09-10T00:36:19.744Z,0.70
2022-09-10T00:38:46.717Z,0.77
2022-09-10T00:41:14.640Z,0.88
2022-09-10T00:43:53.342Z,0.80
2022-09-10T00:46:26.206Z,1.13
2022-09-10T00:48:54.739Z,0.70
2022-09-10T00:51:21.111Z,1.10
2022-09-10T00:53:47.755Z,0.93
2022-09-10T00:56:14.308Z,0.85
2022-09-10T00:58:41.378Z,0.90
2022-09-10T01:01:07.741Z,0.90
2022-09-10T01:03:34.557Z,0.80
2022-09-10T01:06:01.086Z,0.80
2022-09-10T01:08:31.571Z,0.73
2022-09-10T01:11:01.497Z,0.80
2022-09-10T01:13:33.855Z,0.80
2022-09-10T01:16:09.381Z,0.80
2022-09-10T01:18:54.310Z,1.05
2022-09-10T01:21:20.658Z,0.80
2022-09-10T01:24:05.925Z,0.68
2022-09-10T01:26:38.912Z,1.05
2022-09-10T01:29:23.881Z,0.80
2022-09-10T01:32:09.085Z,1.08
2022-09-10T01:34:45.904Z,1.10
2022-09-10T01:37:25.171Z,1.02
2022-09-10T01:39:52.685Z,1.05
2022-09-10T01:42:19.021Z,0.93
2022-09-10T01:44:49.371Z,1.13
2022-09-10T01:47:26.597Z,1.00
2022-09-10T01:50:11.369Z,1.13
2022-09-10T01:52:58.139Z,0.98
2022-09-10T01:58:12.883Z,1.00
2022-09-10T02:00:41.745Z,1.40
2022-09-10T02:03:13.844Z,1.33
2022-09-10T02:05:41.715Z,1.10
2022-09-10T02:08:20.483Z,0.88
2022-09-10T02:10:54.943Z,1.17
2022-09-10T02:13:22.724Z,1.00
2022-09-10T02:15:51.269Z,1.10
2022-09-10T02:18:19.623Z,1.00
2022-09-10T02:20:46.406Z,1.23
2022-09-10T02:23:13.331Z,1.10
2022-09-10T02:25:39.703Z,1.50
2022-09-10T02:28:06.401Z,1.05
2022-09-10T02:30:32.806Z,1.40
2022-09-10T02:32:59.046Z,1.20
2022-09-10T02:35:25.390Z,1.35
2022-09-10T02:37:51.712Z,1.40
2022-09-10T02:40:21.009Z,0.90
2022-09-10T02:42:47.283Z,0.98
2022-09-10T02:45:13.989Z,1.20
2022-09-10T02:47:40.567Z,1.30
2022-09-10T02:50:07.440Z,1.00
2022-09-10T02:52:33.926Z,1.00
2022-09-10T02:55:00.304Z,1.83
2022-09-10T02:57:26.867Z,1.25
2022-09-10T02:59:53.998Z,1.50
2022-09-10T03:02:20.485Z,1.35
2022-09-10T03:04:46.783Z,1.33
2022-09-10T03:07:17.022Z,1.15
2022-09-10T03:09:43.459Z,1.23
2022-09-10T03:12:09.816Z,1.60
2022-09-10T03:14:36.061Z,1.20
2022-09-10T03:17:03.774Z,1.00
2022-09-10T03:19:31.301Z,1.45
2022-09-10T03:21:57.656Z,1.20
2022-09-10T03:24:25.275Z,1.10
2022-09-10T03:26:51.582Z,1.02
2022-09-10T03:29:18.112Z,1.63
2022-09-10T03:31:46.431Z,1.60
2022-09-10T03:34:12.884Z,1.60
2022-09-10T03:36:39.248Z,1.50
2022-09-10T03:39:05.880Z,1.48
2022-09-10T03:41:32.583Z,1.40
2022-09-10T03:43:58.861Z,1.45
2022-09-10T03:46:25.472Z,1.42
2022-09-10T03:48:58.069Z,1.10
2022-09-10T03:51:24.588Z,1.95
2022-09-10T03:53:50.926Z,1.45
2022-09-10T03:56:20.080Z,1.10
2022-09-10T03:58:47.191Z,1.15
2022-09-10T04:01:16.105Z,1.50
2022-09-10T04:03:42.462Z,1.35
2022-09-10T04:06:12.220Z,1.30
2022-09-10T04:08:39.349Z,1.20
2022-09-10T04:11:06.186Z,1.20
2022-09-10T04:13:32.824Z,1.10
2022-09-10T04:16:00.570Z,1.60
2022-09-10T04:18:28.104Z,1.58
2022-09-10T04:20:56.173Z,1.30
2022-09-10T04:23:23.554Z,1.48
2022-09-10T04:25:50.696Z,1.80
2022-09-10T04:28:17.005Z,1.67
2022-09-10T04:30:47.020Z,1.58
2022-09-10T04:33:13.348Z,1.50
2022-09-10T04:35:39.629Z,1.40
2022-09-10T04:38:07.125Z,1.60
2022-09-10T04:40:34.280Z,1.23
2022-09-10T04:43:01.079Z,1.63
2022-09-10T04:45:27.385Z,1.80
2022-09-10T04:47:54.288Z,1.40
2022-09-10T04:50:20.754Z,1.30
2022-09-10T04:52:46.996Z,1.90
2022-09-10T04:55:13.405Z,1.80
2022-09-10T04:57:39.696Z,1.67
2022-09-10T05:00:09.410Z,1.77
2022-09-10T05:02:37.286Z,1.48
2022-09-10T05:05:03.691Z,2.08
2022-09-10T05:07:30.925Z,1.50
2022-09-10T05:09:57.336Z,1.73
2022-09-10T05:12:24.207Z,1.40
2022-09-10T05:14:50.554Z,1.75
2022-09-10T05:17:16.895Z,2.38
2022-09-10T05:19:43.181Z,1.70
2022-09-10T05:22:09.787Z,1.60
2022-09-10T05:24:36.106Z,1.33
2022-09-10T05:27:02.452Z,1.60
2022-09-10T05:29:28.741Z,1.80
2022-09-10T05:31:55.245Z,1.80
2022-09-10T05:34:21.585Z,1.60
2022-09-10T05:36:48.663Z,1.77
2022-09-10T05:39:15.658Z,1.83
2022-09-10T05:41:43.206Z,1.50
2022-09-10T05:44:09.957Z,1.30
2022-09-10T05:46:36.245Z,1.85
2022-09-10T05:49:02.509Z,1.50
2022-09-10T05:51:30.591Z,1.70
2022-09-10T05:53:57.629Z,1.58
2022-09-10T05:56:25.612Z,1.60
2022-09-10T05:58:51.897Z,1.80
2022-09-10T06:01:18.129Z,1.77
2022-09-10T06:03:44.397Z,1.85
2022-09-10T06:06:10.764Z,1.63
2022-09-10T06:08:37.171Z,1.90
2022-09-10T06:11:05.758Z,1.83
2022-09-10T06:13:33.584Z,1.70
2022-09-10T06:16:00.336Z,1.83
2022-09-10T06:18:27.012Z,1.70
2022-09-10T06:21:04.279Z,1.98
2022-09-10T06:23:31.343Z,1.65
2022-09-10T06:26:02.004Z,2.20
2022-09-10T06:28:28.588Z,2.42
2022-09-10T06:30:54.994Z,1.60
2022-09-10T06:33:21.330Z,2.00
2022-09-10T06:35:57.455Z,1.63
2022-09-10T06:38:23.985Z,2.35
2022-09-10T06:40:51.320Z,1.73
2022-09-10T06:43:17.609Z,2.40
2022-09-10T06:45:43.869Z,1.70
2022-09-10T06:51:00.949Z,2.38
2022-09-10T06:53:28.611Z,2.17
2022-09-10T06:55:55.393Z,1.98
2022-09-10T06:58:23.325Z,2.00
2022-09-10T07:00:50.539Z,2.10
2022-09-10T07:03:20.960Z,2.85
2022-09-10T07:05:47.255Z,2.03
2022-09-10T07:08:15.047Z,1.83
2022-09-10T07:10:41.994Z,1.95
2022-09-10T07:13:08.333Z,1.77
2022-09-10T07:15:34.695Z,1.80
2022-09-10T07:18:01.023Z,1.90
2022-09-10T07:20:28.493Z,2.35
2022-09-10T07:22:55.999Z,1.90
2022-09-10T07:25:23.138Z,2.33
2022-09-10T07:27:50.704Z,2.40
2022-09-10T07:30:17.477Z,2.40
2022-09-10T07:32:43.787Z,2.13
2022-09-10T07:35:10.151Z,1.92
2022-09-10T07:37:36.425Z,2.17
2022-09-10T07:40:05.992Z,2.38
2022-09-10T07:42:32.690Z,2.17
2022-09-10T07:44:59.225Z,1.90
2022-09-10T07:47:27.129Z,2.22
2022-09-10T07:49:53.889Z,2.35
2022-09-10T07:52:21.131Z,3.58
2022-09-10T07:54:47.499Z,2.63
2022-09-10T07:57:13.862Z,2.53
2022-09-10T07:59:40.278Z,2.60
2022-09-10T08:02:06.629Z,2.60
2022-09-10T08:04:36.731Z,2.33
2022-09-10T08:07:03.234Z,2.60
2022-09-10T08:09:29.586Z,2.50
2022-09-10T08:11:57.074Z,2.83
2022-09-10T08:14:23.337Z,2.85
2022-09-10T08:16:50.562Z,3.20
2022-09-10T08:19:17.569Z,4.60
2022-09-10T08:21:45.340Z,2.90
2022-09-10T08:24:11.630Z,3.20
2022-09-10T08:26:37.912Z,3.92
2022-09-10T08:29:04.295Z,2.95
2022-09-10T08:31:30.611Z,3.92
2022-09-10T08:33:56.982Z,3.70
2022-09-10T08:36:24.276Z,4.22
2022-09-10T08:38:50.692Z,3.00
2022-09-10T08:41:26.865Z,3.63
2022-09-10T08:46:35.882Z,4.32
2022-09-10T08:49:07.100Z,3.95
2022-09-10T08:51:41.332Z,4.45
2022-09-10T08:54:11.534Z,3.85
2022-09-10T08:56:39.640Z,3.85
2022-09-10T08:59:33.451Z,3.75
2022-09-10T09:02:26.426Z,3.45
2022-09-10T09:05:21.645Z,3.35
2022-09-10T09:07:48.765Z,4.32
2022-09-10T09:10:20.912Z,3.20
2022-09-10T09:13:05.659Z,4.07
2022-09-10T09:15:36.884Z,3.28
2022-09-10T09:18:27.928Z,4.10
2022-09-10T09:20:58.887Z,4.45
2022-09-10T09:23:33.434Z,3.15
2022-09-10T09:26:11.418Z,4.38
2022-09-10T09:28:46.339Z,3.63
2022-09-10T09:31:21.573Z,3.50
2022-09-10T09:33:50.117Z,4.07
2022-09-10T09:36:26.885Z,4.47
2022-09-10T09:38:53.173Z,3.70
2022-09-10T09:41:46.052Z,4.22
2022-09-10T09:44:19.693Z,3.47
2022-09-10T09:46:46.199Z,3.67
2022-09-10T09:49:16.871Z,3.75
2022-09-10T09:51:47.557Z,3.35
2022-09-10T09:54:56.885Z,3.50
2022-09-10T09:57:14.743Z,3.63
2022-09-10T09:59:41.224Z,3.87
2022-09-10T10:02:12.991Z,3.50
2022-09-10T10:04:42.370Z,3.40
2022-09-10T10:07:08.775Z,3.92
2022-09-10T10:09:39.663Z,3.63
2022-09-10T10:12:14.437Z,3.85
2022-09-10T10:14:41.915Z,3.85
2022-09-10T10:17:40.820Z,3.42
2022-09-10T10:20:14.837Z,4.30
2022-09-10T10:22:42.194Z,4.50
2022-09-10T10:25:27.036Z,4.18
2022-09-10T10:27:54.388Z,4.10
2022-09-10T10:30:22.094Z,3.78
2022-09-10T10:32:51.374Z,3.60
2022-09-10T10:35:19.134Z,4.05
2022-09-10T10:38:04.296Z,4.10
2022-09-10T10:40:36.934Z,3.83
2022-09-10T10:43:15.574Z,3.45
2022-09-10T10:45:44.996Z,4.05
2022-09-10T10:48:16.025Z,3.67
2022-09-10T10:50:42.905Z,3.33
2022-09-10T10:53:15.708Z,3.78
2022-09-10T10:55:45.448Z,4.07
2022-09-10T10:58:21.310Z,3.70
2022-09-10T11:00:51.750Z,4.30
2022-09-10T11:03:18.218Z,3.88
2022-09-10T11:06:10.950Z,4.05
2022-09-10T11:08:45.547Z,4.72
2022-09-10T11:11:18.309Z,4.20
2022-09-10T11:13:48.645Z,3.60
2022-09-10T11:16:22.231Z,3.45
2022-09-10T11:18:56.541Z,3.90
2022-09-10T11:21:33.156Z,4.13
2022-09-10T11:24:16.834Z,3.90
2022-09-10T11:26:45.476Z,4.18
2022-09-10T11:29:25.348Z,3.95
2022-09-10T11:32:02.568Z,3.75
2022-09-10T11:34:37.974Z,3.95
2022-09-10T11:37:10.448Z,3.80
2022-09-10T11:39:38.488Z,3.45
2022-09-10T11:42:10.352Z,4.45
2022-09-10T11:44:56.944Z,6.03
2022-09-10T11:47:34.757Z,5.00
2022-09-10T11:50:03.208Z,4.13
2022-09-10T11:52:30.872Z,3.90
2022-09-10T11:54:58.097Z,4.57
2022-09-10T11:57:33.133Z,3.95
2022-09-10T12:00:02.569Z,4.17
2022-09-10T12:02:32.621Z,3.20
2022-09-10T12:05:03.678Z,4.18
2022-09-10T12:07:35.904Z,3.53
2022-09-10T12:10:23.823Z,4.55
2022-09-10T12:12:50.316Z,3.60
2022-09-10T12:15:24.521Z,3.75
2022-09-10T12:17:57.545Z,4.03
2022-09-10T12:20:29.158Z,4.18
2022-09-10T12:23:01.165Z,4.00
2022-09-10T12:25:34.166Z,3.80
2022-09-10T12:28:02.133Z,3.42
2022-09-10T12:30:33.217Z,4.00
2022-09-10T12:33:18.413Z,3.72
2022-09-10T12:35:46.618Z,3.95
2022-09-10T12:38:31.732Z,3.13
2022-09-10T12:40:58.014Z,4.70
2022-09-10T12:43:44.535Z,3.20
2022-09-10T12:46:12.119Z,4.25
2022-09-10T12:48:43.497Z,3.53
2022-09-10T12:51:12.894Z,2.85
2022-09-10T12:53:58.087Z,3.10
2022-09-10T12:56:24.301Z,2.70
2022-09-10T12:58:57.320Z,2.70
2022-09-10T13:01:37.983Z,3.38
2022-09-10T13:04:04.352Z,2.60
2022-09-10T13:06:48.768Z,2.63
2022-09-10T13:09:23.432Z,2.70
2022-09-10T13:11:52.825Z,2.60
2022-09-10T13:14:22.836Z,3.10
2022-09-10T13:16:49.271Z,2.40
2022-09-10T13:19:17.857Z,2.42
2022-09-10T13:21:44.081Z,3.00
2022-09-10T13:24:32.298Z,2.80
2022-09-10T13:27:18.973Z,2.45
2022-09-10T13:29:55.337Z,2.75
2022-09-10T13:32:24.596Z,2.40
2022-09-10T13:35:06.268Z,2.33
2022-09-10T13:37:35.552Z,2.40
2022-09-10T13:40:02.148Z,2.63
2022-09-10T13:42:43.788Z,2.58
2022-09-10T13:45:29.247Z,1.90
2022-09-10T13:48:17.321Z,2.30
2022-09-10T13:50:55.148Z,2.10
2022-09-10T13:53:39.397Z,2.67
2022-09-10T13:56:13.552Z,2.00
2022-09-10T14:04:36.997Z,1.80
2022-09-10T14:07:03.340Z,2.20
2022-09-10T14:09:35.911Z,1.77
2022-09-10T14:12:04.019Z,2.03
2022-09-10T14:14:33.985Z,2.10
2022-09-10T14:17:21.276Z,3.83
2022-09-10T14:27:06.854Z,2.88
2022-09-10T14:29:33.661Z,2.95
2022-09-10T14:32:16.655Z,2.15
2022-09-10T14:34:43.053Z,2.25
2022-09-10T14:37:26.334Z,2.50
2022-09-10T14:39:52.796Z,2.45
2022-09-10T14:42:27.358Z,2.67
2022-09-10T14:44:54.319Z,2.22
2022-09-10T14:47:26.399Z,2.15
2022-09-10T14:49:52.832Z,2.17
2022-09-10T14:52:19.972Z,1.80
2022-09-10T14:54:46.285Z,1.98
2022-09-10T14:57:14.669Z,1.90
2022-09-10T14:59:42.511Z,1.80
2022-09-10T15:02:25.614Z,2.35
2022-09-10T15:04:52.261Z,2.10
2022-09-10T15:07:19.096Z,1.88
2022-09-10T15:09:46.769Z,2.28
2022-09-10T15:12:19.529Z,2.03
2022-09-10T15:14:45.967Z,2.00
2022-09-10T15:17:17.542Z,2.10
2022-09-10T15:19:44.423Z,1.90
2022-09-10T15:22:21.364Z,2.03
2022-09-10T15:25:08.547Z,1.95
2022-09-10T15:30:00.929Z,2.33
2022-09-10T15:32:27.315Z,1.98
2022-09-10T15:34:53.907Z,2.03
2022-09-10T15:37:21.047Z,2.00
2022-09-10T15:39:48.598Z,1.83
2022-09-10T15:42:15.558Z,2.55
2022-09-10T15:44:41.905Z,2.40
2022-09-10T15:47:08.194Z,2.10
2022-09-10T15:49:35.316Z,3.28
2022-09-10T15:52:01.957Z,2.55
2022-09-10T15:54:28.438Z,2.13
2022-09-10T15:56:54.765Z,2.35
2022-09-10T15:59:22.649Z,2.70
2022-09-10T16:01:50.051Z,2.55
2022-09-10T16:04:16.627Z,2.42
2022-09-10T16:06:43.915Z,2.22
2022-09-10T16:09:11.953Z,2.15
2022-09-10T16:11:40.091Z,1.90
2022-09-10T16:14:07.615Z,2.03
2022-09-10T16:16:35.093Z,2.40
2022-09-10T16:19:01.691Z,2.05
2022-09-10T16:21:29.119Z,1.88
2022-09-10T16:23:56.502Z,2.03
2022-09-10T16:26:27.558Z,1.70
2022-09-10T16:28:57.910Z,1.90
2022-09-10T16:31:25.937Z,1.90
2022-09-10T16:33:55.098Z,1.73
2022-09-10T16:36:23.664Z,1.88
2022-09-10T16:38:54.910Z,2.50
2022-09-10T16:41:22.932Z,2.17
2022-09-10T16:43:50.440Z,2.67
2022-09-10T16:46:19.517Z,2.40
2022-09-10T16:48:46.292Z,2.30
2022-09-10T16:51:14.015Z,2.60
2022-09-10T16:53:41.076Z,2.00
2022-09-10T16:56:09.453Z,2.30
2022-09-10T16:58:36.702Z,1.60
2022-09-10T17:01:04.512Z,1.80
2022-09-10T17:03:31.481Z,2.65
2022-09-10T17:05:58.585Z,2.33
2022-09-10T17:08:25.536Z,2.10
2022-09-10T17:10:51.836Z,2.17
2022-09-10T17:13:18.954Z,2.00
2022-09-10T17:15:45.392Z,1.90
2022-09-10T17:18:11.974Z,2.03
2022-09-10T17:20:41.825Z,2.50
2022-09-10T17:23:08.693Z,1.75
2022-09-10T17:25:35.042Z,2.55
2022-09-10T17:28:02.117Z,2.08
2022-09-10T17:30:28.770Z,2.80
2022-09-10T17:32:55.647Z,2.20
2022-09-10T17:35:22.061Z,2.38
2022-09-10T17:37:48.362Z,2.30
2022-09-10T17:40:14.854Z,2.47
2022-09-10T17:42:45.131Z,2.80
2022-09-10T17:45:11.788Z,3.75
2022-09-10T17:47:39.063Z,2.70
2022-09-10T17:50:05.554Z,2.78
2022-09-10T17:52:31.835Z,2.65
2022-09-10T17:54:58.108Z,2.40
2022-09-10T17:57:24.431Z,2.83
2022-09-10T17:59:50.747Z,2.38
2022-09-10T18:02:18.399Z,3.10
2022-09-10T18:04:48.052Z,2.97
2022-09-10T18:07:14.355Z,3.03
2022-09-10T18:09:40.764Z,2.70
2022-09-10T18:12:07.762Z,2.65
2022-09-10T18:14:34.209Z,2.92
2022-09-10T18:17:00.485Z,3.00
2022-09-10T18:19:26.765Z,3.33
2022-09-10T18:21:53.069Z,2.67
2022-09-10T18:24:23.999Z,2.55
2022-09-10T18:26:51.117Z,2.72
2022-09-10T18:29:19.041Z,2.55
2022-09-10T18:31:46.652Z,2.50
2022-09-10T18:34:17.466Z,2.50
2022-09-10T18:36:45.987Z,2.70
2022-09-10T18:39:12.855Z,2.35
2022-09-10T18:41:40.645Z,2.70
2022-09-10T18:44:09.817Z,3.10
2022-09-10T18:46:36.479Z,2.40
2022-09-10T18:49:03.098Z,2.53
2022-09-10T18:51:30.145Z,2.30
2022-09-10T18:53:58.236Z,2.95
2022-09-10T18:56:25.452Z,2.55
2022-09-10T18:58:53.360Z,2.28
2022-09-10T19:01:19.997Z,2.50
2022-09-10T19:03:47.596Z,3.08
2022-09-10T19:06:25.830Z,2.67
2022-09-10T19:08:53.515Z,3.13
2022-09-10T19:11:20.760Z,3.67
2022-09-10T19:13:48.233Z,2.22
2022-09-10T19:16:14.516Z,2.55
2022-09-10T19:18:41.618Z,2.40
2022-09-10T19:21:07.835Z,2.38
2022-09-10T19:23:34.989Z,2.08
2022-09-10T19:26:02.082Z,2.55
2022-09-10T19:28:33.580Z,3.00
2022-09-10T19:31:04.733Z,2.22
2022-09-10T19:33:31.642Z,2.42
2022-09-10T19:36:02.963Z,2.53
2022-09-10T19:38:37.539Z,2.45
2022-09-10T19:41:05.709Z,2.58
2022-09-10T19:43:32.091Z,2.50
2022-09-10T19:45:58.911Z,2.60
2022-09-10T19:48:25.322Z,2.75
2022-09-10T19:50:51.628Z,2.90
2022-09-10T19:53:17.891Z,3.35
2022-09-10T19:55:44.257Z,2.90
2022-09-10T19:58:10.654Z,2.97
2022-09-10T20:00:46.708Z,2.83
2022-09-10T20:03:13.845Z,2.75
2022-09-10T20:05:42.474Z,2.50
2022-09-10T20:08:09.638Z,2.60
2022-09-10T20:10:36.775Z,2.83
2022-09-10T20:13:03.055Z,2.70
2022-09-10T20:15:29.559Z,2.92
2022-09-10T20:17:56.088Z,2.42
2022-09-10T20:20:22.460Z,2.90
2022-09-10T20:22:48.870Z,2.88
2022-09-10T20:25:15.328Z,3.33
2022-09-10T20:27:41.653Z,2.50
2022-09-10T20:30:08.094Z,2.83
2022-09-10T20:32:34.366Z,2.50
2022-09-10T20:35:01.812Z,2.83
2022-09-10T20:37:28.104Z,3.17
2022-09-10T20:39:56.526Z,3.35
2022-09-10T20:42:25.348Z,3.33
2022-09-10T20:44:51.625Z,3.35
2022-09-10T20:47:17.908Z,3.20
2022-09-10T20:49:44.201Z,3.50
2022-09-10T20:52:10.657Z,3.13
2022-09-10T20:54:36.954Z,3.30
2022-09-10T20:57:03.319Z,3.08
2022-09-10T20:59:30.481Z,3.80
2022-09-10T21:01:56.976Z,3.60
2022-09-10T21:04:23.434Z,3.30
2022-09-10T21:06:49.741Z,3.00
2022-09-10T21:09:16.074Z,2.88
2022-09-10T21:11:42.442Z,3.55
2022-09-10T21:14:09.286Z,3.05
2022-09-10T21:16:39.627Z,3.25
2022-09-10T21:19:07.857Z,3.45
2022-09-10T21:21:35.089Z,3.20
2022-09-10T21:24:03.202Z,3.45
2022-09-10T21:26:30.569Z,3.13
2022-09-10T21:28:58.120Z,3.00
2022-09-10T21:31:25.186Z,3.30
2022-09-10T21:33:51.527Z,3.85
2022-09-10T21:36:18.819Z,3.30
2022-09-10T21:38:46.850Z,3.20
2022-09-10T21:41:14.808Z,3.35
2022-09-10T21:43:45.397Z,3.05
2022-09-10T21:46:11.761Z,4.18
2022-09-10T21:48:39.902Z,3.28
2022-09-10T21:51:07.772Z,3.13
2022-09-10T21:53:34.814Z,3.92
2022-09-10T21:56:02.342Z,3.10
2022-09-10T21:58:29.438Z,3.40
2022-09-10T22:00:58.502Z,3.00
2022-09-10T22:03:32.027Z,4.15
2022-09-10T22:06:04.517Z,3.25
2022-09-10T22:08:30.899Z,2.88
2022-09-10T22:11:00.668Z,3.17
2022-09-10T22:13:26.980Z,3.00
2022-09-10T22:15:53.764Z,3.10
2022-09-10T22:18:20.652Z,3.25
2022-09-10T22:20:46.936Z,2.72
2022-09-10T22:23:15.653Z,2.88
2022-09-10T22:25:41.955Z,2.95
2022-09-10T22:28:08.305Z,3.05
2022-09-10T22:30:36.293Z,2.72
2022-09-10T22:33:02.971Z,3.13
2022-09-10T22:35:31.023Z,3.15
2022-09-10T22:37:57.308Z,3.65
2022-09-10T22:40:24.381Z,2.70
2022-09-10T22:42:51.646Z,3.45
2022-09-10T22:45:21.099Z,3.00
2022-09-10T22:47:48.227Z,2.70
2022-09-10T22:50:15.352Z,3.00
2022-09-10T22:52:43.566Z,3.30
2022-09-10T22:55:10.254Z,2.83
2022-09-10T22:57:36.690Z,2.97
2022-09-10T23:00:03.523Z,3.17
2022-09-10T23:02:29.794Z,2.90
2022-09-10T23:04:56.280Z,2.88
2022-09-10T23:07:22.562Z,3.17
2022-09-10T23:09:48.883Z,3.13
2022-09-10T23:12:15.159Z,3.95
2022-09-10T23:14:41.610Z,3.13
2022-09-10T23:17:07.896Z,3.30
2022-09-10T23:19:34.335Z,3.30
2022-09-10T23:22:00.642Z,3.03
2022-09-10T23:24:27.127Z,2.97
2022-09-10T23:26:53.763Z,2.75
2022-09-10T23:29:21.500Z,3.05
2022-09-10T23:31:47.968Z,2.67
2022-09-10T23:34:15.891Z,2.70
2022-09-10T23:36:43.082Z,2.92
2022-09-10T23:39:13.011Z,3.30
2022-09-10T23:41:39.440Z,2.85
2022-09-10T23:44:06.221Z,3.10
2022-09-10T23:46:32.620Z,3.03
2022-09-10T23:48:59.020Z,3.10
2022-09-10T23:51:25.274Z,3.13
2022-09-10T23:53:51.727Z,3.33
2022-09-10T23:56:19.093Z,3.08
2022-09-10T23:58:45.829Z,3.30
